Time;durP1;ratioP1;P1;durP2;ratioP2;P2;SDS_P1;SDS_P2;PMS_P1;PMS_P2;Temp;Humidity;BMP_temperature;BMP_pressure;BME280_temperature;BME280_humidity;BME280_pressure;Samples;Min_cycle;Max_cycle;Signal;HPM_P1;HPM_P2
2023/07/13 00:01:54;;;;;;;10.20;4.90;;;;;;;13.67;100.00;100207.50;7370950;19;20424;-38
2023/07/13 00:04:26;;;;;;;9.75;4.90;;;;;;;13.63;100.00;100204.00;7393762;19;20718;-39
2023/07/13 00:06:56;;;;;;;10.52;5.53;;;;;;;13.55;100.00;100200.38;7367895;19;20912;-36
2023/07/13 00:09:28;;;;;;;12.35;5.53;;;;;;;13.56;100.00;100198.63;7395214;19;20390;-38
2023/07/13 00:11:59;;;;;;;13.48;5.70;;;;;;;13.55;100.00;100190.00;7369532;19;20342;-38
2023/07/13 00:14:30;;;;;;;9.90;5.22;;;;;;;13.54;100.00;100180.47;7394488;19;20372;-38
2023/07/13 00:17:00;;;;;;;11.98;5.07;;;;;;;13.52;100.00;100179.56;7368311;19;20352;-39
2023/07/13 00:19:30;;;;;;;11.10;4.70;;;;;;;13.51;100.00;100183.00;7394449;19;20356;-38
2023/07/13 00:21:59;;;;;;;9.87;5.03;;;;;;;13.49;100.00;100179.50;7369146;19;20388;-39
2023/07/13 00:24:31;;;;;;;11.52;5.30;;;;;;;13.49;100.00;100175.19;7396067;19;20384;-38
2023/07/13 00:27:01;;;;;;;10.80;5.95;;;;;;;13.49;100.00;100174.34;7369349;19;20360;-39
2023/07/13 00:29:33;;;;;;;11.48;6.65;;;;;;;13.55;100.00;100169.28;7394674;19;20445;-37
2023/07/13 00:32:04;;;;;;;12.65;7.90;;;;;;;13.57;100.00;100164.09;7369435;19;20368;-36
2023/07/13 00:34:33;;;;;;;11.30;6.80;;;;;;;13.58;100.00;100169.31;7394536;19;20370;-38
2023/07/13 00:37:03;;;;;;;13.55;6.97;;;;;;;13.53;100.00;100160.56;7368307;19;20440;-38
2023/07/13 00:39:35;;;;;;;14.07;7.60;;;;;;;13.57;100.00;100156.31;7394675;19;21030;-38
2023/07/13 00:42:06;;;;;;;11.50;7.13;;;;;;;13.51;100.00;100167.44;7369374;19;20960;-38
2023/07/13 00:44:35;;;;;;;16.70;7.72;;;;;;;13.49;100.00;100162.22;7393744;19;20360;-38
2023/07/13 00:47:05;;;;;;;13.27;7.53;;;;;;;13.45;100.00;100163.00;7367848;19;20344;-38
2023/07/13 00:49:36;;;;;;;12.52;6.10;;;;;;;13.39;100.00;100162.88;7394156;19;20360;-39
2023/07/13 00:52:08;;;;;;;15.13;7.68;;;;;;;13.41;100.00;100165.47;7365033;19;20400;-38
2023/07/13 00:54:46;;;;;;;14.48;7.47;;;;;;;13.36;100.00;100168.88;7393697;19;20373;-36
2023/07/13 00:57:19;;;;;;;14.30;6.90;;;;;;;13.36;100.00;100161.09;7369998;19;20361;-36
2023/07/13 00:59:53;;;;;;;16.33;7.70;;;;;;;13.33;100.00;100158.41;7381821;19;20468;-37
2023/07/13 01:02:23;;;;;;;13.65;6.65;;;;;;;13.28;100.00;100161.78;7392911;19;20356;-38
2023/07/13 01:04:53;;;;;;;12.00;6.70;;;;;;;13.27;100.00;100160.88;7371559;19;20357;-38
2023/07/13 01:07:22;;;;;;;14.83;6.90;;;;;;;13.24;100.00;100163.41;7391566;19;20385;-38
2023/07/13 01:09:54;;;;;;;13.38;6.70;;;;;;;13.22;100.00;100168.56;7370762;19;20764;-36
2023/07/13 01:12:24;;;;;;;13.07;6.60;;;;;;;13.22;100.00;100162.50;7391664;19;20360;-38
2023/07/13 01:15:00;;;;;;;11.38;6.40;;;;;;;13.21;100.00;100160.75;7372313;19;20364;-39
2023/07/13 01:17:31;;;;;;;10.80;5.93;;;;;;;13.23;100.00;100153.91;7399589;19;20431;-39
2023/07/13 01:20:00;;;;;;;12.77;6.28;;;;;;;13.24;100.00;100155.66;7375999;19;20373;-40
2023/07/13 01:22:32;;;;;;;11.98;6.50;;;;;;;13.25;100.00;100144.44;7400950;19;20365;-39
2023/07/13 01:25:03;;;;;;;11.70;6.13;;;;;;;13.29;100.00;100138.50;7380176;19;20899;-39
2023/07/13 01:27:34;;;;;;;11.75;6.25;;;;;;;13.31;100.00;100129.03;7399421;19;20372;-37
2023/07/13 01:30:04;;;;;;;12.48;6.00;;;;;;;13.33;100.00;100126.47;7376731;19;20378;-38
2023/07/13 01:32:34;;;;;;;11.00;6.40;;;;;;;13.34;100.00;100136.84;7397617;19;20440;-40
2023/07/13 01:35:03;;;;;;;11.70;5.93;;;;;;;13.33;100.00;100124.75;7375709;19;20360;-40
2023/07/13 01:37:36;;;;;;;12.65;6.22;;;;;;;13.36;100.00;100127.41;7394429;19;20369;-39
2023/07/13 01:40:35;;;;;;;12.00;7.00;;;;;;;13.40;100.00;100122.28;7372188;19;20356;-38
2023/07/13 01:43:08;;;;;;;12.00;6.53;;;;;;;13.40;100.00;100132.63;7395259;19;20882;-39
2023/07/13 01:45:37;;;;;;;13.20;6.70;;;;;;;13.41;100.00;100130.09;7371892;19;20764;-38
2023/07/13 01:48:08;;;;;;;9.73;6.10;;;;;;;13.42;100.00;100120.56;7396391;19;20364;-38
2023/07/13 01:50:38;;;;;;;13.20;6.50;;;;;;;13.43;100.00;100112.00;7368290;19;20388;-39
2023/07/13 01:53:10;;;;;;;11.45;6.85;;;;;;;13.42;100.00;100108.50;7393890;19;20375;-39
2023/07/13 01:55:40;;;;;;;12.18;6.60;;;;;;;13.44;100.00;100111.13;7370412;19;20408;-39
2023/07/13 01:58:10;;;;;;;10.75;6.82;;;;;;;13.43;100.00;100106.81;7397805;19;20377;-39
2023/07/13 02:00:39;;;;;;;10.55;7.05;;;;;;;13.42;100.00;100108.50;7371254;19;20369;-39
2023/07/13 02:03:09;;;;;;;15.35;8.15;;;;;;;13.41;100.00;100106.75;7393608;19;20368;-39
2023/07/13 02:05:39;;;;;;;11.10;7.20;;;;;;;13.42;100.00;100105.03;7368278;19;20319;-38
2023/07/13 02:08:11;;;;;;;12.55;6.80;;;;;;;13.40;100.00;100104.13;7394026;19;20371;-38
2023/07/13 02:10:40;;;;;;;10.90;7.20;;;;;;;13.40;100.00;100101.53;7370322;19;20380;-38
2023/07/13 02:13:10;;;;;;;11.93;7.40;;;;;;;13.40;100.00;100106.72;7392721;19;20368;-38
2023/07/13 02:15:42;;;;;;;13.18;6.90;;;;;;;13.36;100.00;100101.50;7368039;19;20836;-38
2023/07/13 02:18:16;;;;;;;14.50;7.60;;;;;;;13.34;100.00;100103.16;7392591;19;20364;-39
2023/07/13 02:20:46;;;;;;;11.63;7.40;;;;;;;13.34;100.00;100108.34;7368379;19;20653;-38
2023/07/13 02:23:18;;;;;;;12.57;7.40;;;;;;;13.32;100.00;100110.03;7390770;19;20424;-38
2023/07/13 02:25:48;;;;;;;10.55;7.78;;;;;;;13.30;100.00;100113.44;7366681;19;20317;-38
2023/07/13 02:28:17;;;;;;;12.83;8.10;;;;;;;13.30;100.00;100110.84;7391919;19;20360;-38
2023/07/13 02:30:47;;;;;;;11.50;7.75;;;;;;;13.29;100.00;100099.63;7373702;19;20335;-39
2023/07/13 02:33:17;;;;;;;12.32;7.88;;;;;;;13.26;100.00;100106.44;7397725;19;20389;-38
2023/07/13 02:35:46;;;;;;;11.32;8.18;;;;;;;13.22;100.00;100101.22;7374313;19;20380;-38
2023/07/13 02:38:19;;;;;;;13.13;9.00;;;;;;;13.25;100.00;100097.81;7398517;19;20364;-38
2023/07/13 02:40:49;;;;;;;13.00;8.50;;;;;;;13.23;100.00;100104.69;7373533;19;20318;-39
2023/07/13 02:43:18;;;;;;;12.80;8.90;;;;;;;13.21;100.00;100096.00;7396646;19;20552;-36
2023/07/13 02:45:49;;;;;;;11.85;8.35;;;;;;;13.17;100.00;100099.38;7372868;19;20328;-37
2023/07/13 02:48:18;;;;;;;14.68;8.30;;;;;;;13.13;100.00;100094.97;7397365;19;20792;-38
2023/07/13 02:50:48;;;;;;;12.75;8.10;;;;;;;13.12;100.00;100096.69;7373709;19;20296;-38
2023/07/13 02:53:20;;;;;;;13.43;8.68;;;;;;;13.11;100.00;100092.34;7397718;19;20979;-36
2023/07/13 02:55:50;;;;;;;13.13;8.60;;;;;;;13.09;100.00;100092.31;7372786;19;20309;-36
2023/07/13 02:58:20;;;;;;;13.93;8.70;;;;;;;13.08;100.00;100093.16;7396748;19;20929;-38
2023/07/13 03:00:50;;;;;;;15.20;8.88;;;;;;;13.05;100.00;100087.91;7373943;19;20328;-35
2023/07/13 03:03:20;;;;;;;12.50;8.52;;;;;;;13.05;100.00;100098.28;7397601;19;20714;-37
2023/07/13 03:05:50;;;;;;;13.18;8.57;;;;;;;13.05;100.00;100089.63;7370365;19;20320;-38
2023/07/13 03:08:23;;;;;;;13.20;8.82;;;;;;;13.03;100.00;100094.75;7396257;19;20471;-38
2023/07/13 03:11:01;;;;;;;12.27;8.53;;;;;;;13.04;100.00;100095.66;7374432;19;20404;-38
2023/07/13 03:13:31;;;;;;;13.00;8.32;;;;;;;13.01;100.00;100093.88;7391642;19;20429;-38
2023/07/13 03:16:01;;;;;;;11.95;8.30;;;;;;;13.02;100.00;100094.75;7375544;19;20314;-38
2023/07/13 03:18:31;;;;;;;14.10;8.40;;;;;;;13.00;100.00;100089.53;7398956;19;20372;-39
2023/07/13 03:21:00;;;;;;;15.55;8.70;;;;;;;12.99;100.00;100087.78;7372969;19;20320;-38
2023/07/13 03:23:33;;;;;;;13.00;9.70;;;;;;;12.97;100.00;100102.41;7396902;19;20360;-39
2023/07/13 03:26:07;;;;;;;14.85;8.35;;;;;;;12.95;100.00;100098.91;7373578;19;20324;-38
2023/07/13 03:28:38;;;;;;;13.52;8.00;;;;;;;12.94;100.00;100094.59;7399172;19;20391;-38
2023/07/13 03:31:09;;;;;;;13.45;8.00;;;;;;;12.94;100.00;100097.16;7374123;19;20690;-38
2023/07/13 03:33:39;;;;;;;11.13;8.65;;;;;;;12.92;100.00;100086.78;7400260;19;20360;-38
2023/07/13 03:36:12;;;;;;;12.00;7.87;;;;;;;12.90;100.00;100085.88;7374097;19;20341;-38
2023/07/13 03:38:46;;;;;;;13.95;8.60;;;;;;;12.90;100.00;100087.59;7392262;19;20360;-39
2023/07/13 03:41:16;;;;;;;14.15;9.15;;;;;;;12.95;100.00;100094.63;7364962;19;20733;-38
2023/07/13 03:43:47;;;;;;;11.20;8.38;;;;;;;12.92;100.00;100091.09;7396763;19;20361;-38
2023/07/13 03:46:17;;;;;;;13.80;8.23;;;;;;;12.90;100.00;100085.00;7370557;19;20317;-38
2023/07/13 03:48:48;;;;;;;10.90;8.38;;;;;;;12.92;100.00;100088.50;7396589;19;20388;-39
2023/07/13 03:51:19;;;;;;;11.93;8.60;;;;;;;12.93;100.00;100082.47;7370057;19;20366;-38
2023/07/13 03:53:51;;;;;;;12.57;7.65;;;;;;;12.90;100.00;100079.81;7396200;19;20369;-38
2023/07/13 03:56:21;;;;;;;14.60;7.90;;;;;;;12.89;100.00;100093.59;7370112;19;20331;-38
2023/07/13 03:58:52;;;;;;;12.23;8.20;;;;;;;12.89;100.00;100089.31;7396771;19;20384;-38
2023/07/13 04:01:23;;;;;;;11.97;7.80;;;;;;;12.88;100.00;100091.88;7370212;19;20347;-37
2023/07/13 04:03:53;;;;;;;12.75;7.90;;;;;;;12.87;100.00;100093.56;7396452;19;20353;-40
2023/07/13 04:06:24;;;;;;;11.27;7.90;;;;;;;12.84;100.00;100093.50;7369022;19;20349;-36
2023/07/13 04:08:59;;;;;;;14.20;7.97;;;;;;;12.85;100.00;100096.94;7396512;19;20372;-36
2023/07/13 04:11:33;;;;;;;13.30;7.40;;;;;;;12.81;100.00;100096.91;7370275;19;20407;-38
2023/07/13 04:14:02;;;;;;;10.50;6.85;;;;;;;12.82;100.00;100077.94;7396228;19;20424;-39
2023/07/13 04:16:32;;;;;;;12.07;7.07;;;;;;;12.85;100.00;100082.31;7370185;19;20336;-36
2023/07/13 04:19:02;;;;;;;12.30;6.83;;;;;;;12.82;100.00;100077.94;7398188;19;20389;-39
2023/07/13 04:21:33;;;;;;;10.77;6.20;;;;;;;12.82;100.00;100059.81;7370552;19;20396;-39
2023/07/13 04:24:07;;;;;;;12.70;6.60;;;;;;;12.81;100.00;100058.06;7396227;19;20375;-37
2023/07/13 04:26:38;;;;;;;11.20;6.70;;;;;;;12.82;100.00;100077.94;7369495;19;20688;-38
2023/07/13 04:29:08;;;;;;;10.93;6.93;;;;;;;12.82;100.00;100067.59;7397954;19;20369;-38
2023/07/13 04:31:37;;;;;;;11.45;6.90;;;;;;;12.80;100.00;100063.22;7369567;19;20320;-38
2023/07/13 04:34:07;;;;;;;12.30;6.50;;;;;;;12.87;100.00;100056.47;7397608;19;20359;-38
2023/07/13 04:36:38;;;;;;;13.75;6.38;;;;;;;12.88;100.00;100066.84;7369934;19;20897;-38
2023/07/13 04:39:10;;;;;;;10.23;6.32;;;;;;;12.88;100.00;100068.56;7395613;19;21554;-38
2023/07/13 04:41:40;;;;;;;10.75;6.55;;;;;;;12.91;100.00;100060.84;7369477;19;20421;-38
2023/07/13 04:44:09;;;;;;;8.33;5.90;;;;;;;12.96;100.00;100065.28;7395527;19;20367;-38
2023/07/13 04:46:40;;;;;;;9.40;5.90;;;;;;;12.98;100.00;100067.94;7369243;19;20317;-39
2023/07/13 04:49:10;;;;;;;15.27;6.25;;;;;;;13.00;100.00;100066.22;7396336;19;20373;-39
2023/07/13 04:51:39;;;;;;;15.27;6.50;;;;;;;13.04;100.00;100073.22;7367969;19;20340;-38
2023/07/13 04:54:12;;;;;;;13.23;6.90;;;;;;;13.04;100.00;100075.81;7392943;19;20361;-38
2023/07/13 04:56:41;;;;;;;11.10;6.07;;;;;;;13.12;100.00;100075.97;7368826;19;20396;-38
2023/07/13 04:59:11;;;;;;;12.95;6.20;;;;;;;13.16;100.00;100093.31;7395513;19;20375;-38
2023/07/13 05:01:41;;;;;;;11.15;6.13;;;;;;;13.19;100.00;100088.19;7369041;19;20349;-39
2023/07/13 05:04:10;;;;;;;10.10;6.30;;;;;;;13.24;100.00;100104.69;7393718;19;20377;-37
2023/07/13 05:06:40;;;;;;;12.95;8.07;;;;;;;13.42;100.00;100112.81;7366516;19;20665;-38
2023/07/13 05:09:12;;;;;;;14.18;7.38;;;;;;;13.41;100.00;100122.31;7391739;19;20443;-38
2023/07/13 05:11:42;;;;;;;19.65;10.05;;;;;;;13.39;100.00;100123.13;7369784;19;20361;-38
2023/07/13 05:14:12;;;;;;;22.55;11.23;;;;;;;13.44;100.00;100099.03;7394429;19;20352;-37
2023/07/13 05:16:41;;;;;;;21.25;11.30;;;;;;;13.56;100.00;100119.19;7367353;19;20348;-38
2023/07/13 05:19:11;;;;;;;15.13;7.38;;;;;;;13.66;100.00;100121.94;7394538;19;20987;-42
2023/07/13 05:21:41;;;;;;;15.52;7.03;;;;;;;13.71;100.00;100130.69;7367638;19;20333;-39
2023/07/13 05:24:13;;;;;;;13.60;6.38;;;;;;;13.73;100.00;100119.50;7394640;19;20356;-38
2023/07/13 05:26:54;;;;;;;14.23;6.40;;;;;;;13.76;100.00;100121.28;7367129;19;20332;-38
2023/07/13 05:29:23;;;;;;;12.50;6.03;;;;;;;13.85;100.00;100124.03;7393157;19;20723;-42
2023/07/13 05:31:53;;;;;;;19.17;9.27;;;;;;;13.88;100.00;100137.06;7367717;19;20376;-38
2023/07/13 05:34:23;;;;;;;16.75;9.13;;;;;;;13.86;100.00;100138.75;7393381;19;20390;-38
2023/07/13 05:36:52;;;;;;;20.88;8.30;;;;;;;13.86;100.00;100156.91;7367595;19;20687;-38
2023/07/13 05:39:26;;;;;;;19.05;8.52;;;;;;;13.94;100.00;100171.72;7393106;19;20376;-38
2023/07/13 05:41:55;;;;;;;15.23;7.00;;;;;;;13.89;100.00;100185.47;7367279;19;20333;-38
2023/07/13 05:44:25;;;;;;;14.02;6.75;;;;;;;13.97;100.00;100202.91;7393267;19;20431;-38
2023/07/13 05:46:54;;;;;;;14.40;5.70;;;;;;;13.95;100.00;100196.81;7367358;19;20297;-38
2023/07/13 05:49:24;;;;;;;17.23;7.60;;;;;;;13.97;100.00;100221.06;7391909;19;20371;-38
2023/07/13 05:51:54;;;;;;;18.90;7.22;;;;;;;14.00;100.00;100211.59;7393727;19;20364;-38
2023/07/13 05:54:26;;;;;;;14.30;6.40;;;;;;;13.96;100.00;100227.97;7390836;19;20371;-38
2023/07/13 05:56:56;;;;;;;13.90;6.55;;;;;;;14.01;100.00;100251.41;7367534;19;20346;-38
2023/07/13 05:59:25;;;;;;;15.73;6.18;;;;;;;14.12;100.00;100272.34;7391947;19;20380;-37
2023/07/13 06:01:55;;;;;;;31.65;12.80;;;;;;;14.13;100.00;100290.53;7365299;19;20345;-38
2023/07/13 06:04:24;;;;;;;19.33;9.07;;;;;;;14.11;100.00;100325.94;7391713;19;20735;-38
2023/07/13 06:06:54;;;;;;;12.50;6.57;;;;;;;14.17;100.00;100320.00;7367879;19;20894;-38
2023/07/13 06:09:26;;;;;;;19.95;7.60;;;;;;;14.14;100.00;100344.16;7390970;19;20371;-38
2023/07/13 06:11:56;;;;;;;18.13;8.98;;;;;;;14.25;100.00;100369.47;7367590;19;20406;-43
2023/07/13 06:14:26;;;;;;;17.58;8.10;;;;;;;14.26;100.00;100379.00;7391240;19;20369;-39
2023/07/13 06:16:55;;;;;;;19.02;8.90;;;;;;;14.25;100.00;100390.22;7368941;19;20437;-38
2023/07/13 06:19:25;;;;;;;19.30;9.35;;;;;;;14.35;100.00;100423.28;7391869;19;20387;-38
2023/07/13 06:21:55;;;;;;;16.98;7.80;;;;;;;14.45;100.00;100482.34;7367914;19;20317;-38
2023/07/13 06:24:29;;;;;;;18.83;8.65;;;;;;;14.42;100.00;100508.22;7391212;19;20719;-38
2023/07/13 06:26:58;;;;;;;15.85;7.30;;;;;;;14.36;100.00;100540.97;7367585;19;20353;-38
2023/07/13 06:29:28;;;;;;;11.32;6.15;;;;;;;14.37;100.00;100598.09;7391284;19;20386;-37
2023/07/13 06:31:57;;;;;;;14.27;5.93;;;;;;;14.43;100.00;100678.69;7366664;19;20365;-37
2023/07/13 06:34:27;;;;;;;25.08;11.68;;;;;;;14.42;100.00;100720.19;7391173;19;20356;-38
2023/07/13 06:36:56;;;;;;;22.67;11.50;;;;;;;14.38;100.00;100752.97;7366069;19;20321;-41
2023/07/13 06:39:28;;;;;;;18.38;8.30;;;;;;;14.48;100.00;100777.44;7390631;19;20371;-38
2023/07/13 06:41:58;;;;;;;23.30;8.77;;;;;;;14.54;100.00;100807.88;7367446;19;20366;-38
2023/07/13 06:44:28;;;;;;;19.73;9.27;;;;;;;14.57;100.00;100824.41;7390866;19;20829;-37
2023/07/13 06:46:57;;;;;;;23.92;7.80;;;;;;;14.54;100.00;100834.72;7366548;19;20329;-38
2023/07/13 06:49:27;;;;;;;16.02;6.70;;;;;;;14.56;100.00;100863.31;7390549;19;20369;-38
2023/07/13 06:51:56;;;;;;;15.57;5.43;;;;;;;14.72;100.00;100880.19;7365531;19;20432;-38
2023/07/13 06:54:29;;;;;;;36.45;16.25;;;;;;;14.77;100.00;100880.34;7390100;19;20359;-38
2023/07/13 06:56:58;;;;;;;32.15;14.60;;;;;;;14.82;100.00;100890.00;7366261;19;20705;-38
2023/07/13 06:59:28;;;;;;;26.83;11.70;;;;;;;14.68;100.00;100899.97;7390720;19;20380;-38
2023/07/13 07:01:57;;;;;;;17.63;6.28;;;;;;;14.68;100.00;100918.16;7356912;19;20360;-38
2023/07/13 07:04:27;;;;;;;16.43;6.77;;;;;;;14.84;100.00;100931.59;7389752;19;20910;-39
2023/07/13 07:06:57;;;;;;;15.73;5.15;;;;;;;14.98;100.00;100930.25;7365633;19;20424;-39
2023/07/13 07:09:31;;;;;;;14.10;5.55;;;;;;;14.82;100.00;100943.69;7390069;19;20380;-38
2023/07/13 07:12:00;;;;;;;11.88;4.50;;;;;;;14.99;100.00;100955.38;7366898;19;20357;-38
2023/07/13 07:14:34;;;;;;;17.05;6.28;;;;;;;15.03;100.00;100961.53;7392127;19;20375;-38
2023/07/13 07:17:03;;;;;;;11.73;4.40;;;;;;;15.03;100.00;100973.66;7369225;19;20379;-37
2023/07/13 07:19:34;;;;;;;13.50;5.27;;;;;;;15.03;100.00;100984.06;7397527;19;20928;-38
2023/07/13 07:22:04;;;;;;;14.82;5.90;;;;;;;15.05;100.00;100990.16;7371670;19;20339;-37
2023/07/13 07:24:36;;;;;;;11.38;4.45;;;;;;;15.23;100.00;101001.06;7397212;19;20368;-38
2023/07/13 07:27:06;;;;;;;14.83;5.00;;;;;;;15.31;100.00;100995.16;7372782;19;20382;-37
2023/07/13 07:29:39;;;;;;;19.90;7.85;;;;;;;15.23;100.00;100997.59;7398071;19;20365;-38
2023/07/13 07:32:17;;;;;;;27.42;10.35;;;;;;;15.41;100.00;101014.50;7373738;19;20347;-38
2023/07/13 07:35:07;;;;;;;15.23;6.00;;;;;;;15.56;100.00;101022.69;7400971;19;20352;-38
2023/07/13 07:37:37;;;;;;;10.60;4.20;;;;;;;15.51;100.00;101034.69;7374441;19;20353;-37
2023/07/13 07:40:13;;;;;;;10.85;5.20;;;;;;;15.43;100.00;101038.81;7398649;19;20396;-38
2023/07/13 07:42:45;;;;;;;16.05;4.90;;;;;;;15.19;100.00;101052.91;7372490;19;20951;-37
2023/07/13 07:45:16;;;;;;;15.13;4.60;;;;;;;15.53;100.00;101049.50;7396922;19;20341;-38
2023/07/13 07:47:46;;;;;;;17.30;6.40;;;;;;;15.68;100.00;101055.06;7375164;19;20784;-39
2023/07/13 07:50:16;;;;;;;20.77;6.70;;;;;;;15.79;100.00;101056.19;7396762;19;20383;-38
2023/07/13 07:52:46;;;;;;;13.85;5.60;;;;;;;16.13;100.00;101061.38;7371639;19;20365;-38
2023/07/13 07:55:19;;;;;;;12.90;5.38;;;;;;;16.35;100.00;101082.72;7397477;19;20364;-38
2023/07/13 07:57:51;;;;;;;25.20;9.93;;;;;;;16.46;100.00;101107.28;7374169;19;20344;-39
2023/07/13 08:00:24;;;;;;;16.58;6.10;;;;;;;16.45;100.00;101136.75;7398061;19;20416;-38
2023/07/13 08:03:14;;;;;;;19.83;7.00;;;;;;;16.69;100.00;101154.69;7375460;19;20737;-38
2023/07/13 08:05:46;;;;;;;14.52;4.50;;;;;;;16.72;100.00;101175.59;7373264;19;20365;-38
2023/07/13 08:08:37;;;;;;;10.90;3.50;;;;;;;17.05;100.00;101186.78;7398329;19;20392;-39
2023/07/13 08:11:11;;;;;;;15.80;4.85;;;;;;;17.22;100.00;101194.09;7373578;19;20288;-38
2023/07/13 08:13:43;;;;;;;13.30;4.30;;;;;;;17.35;100.00;101198.72;7397621;19;20365;-38
2023/07/13 08:16:13;;;;;;;26.25;8.98;;;;;;;17.06;100.00;101226.72;7373621;19;20320;-38
2023/07/13 08:18:43;;;;;;;22.23;7.27;;;;;;;16.98;100.00;101229.16;7393305;19;20364;-39
2023/07/13 08:21:12;;;;;;;9.07;3.20;;;;;;;17.09;100.00;101229.41;7369410;19;20739;-39
2023/07/13 08:23:42;;;;;;;11.07;4.45;;;;;;;17.16;100.00;101236.53;7392678;19;20368;-39
2023/07/13 08:26:15;;;;;;;11.20;3.93;;;;;;;17.17;100.00;101245.25;7369734;19;20434;-39
2023/07/13 08:28:44;;;;;;;11.95;4.40;;;;;;;17.27;100.00;101240.25;7392007;19;20356;-36
2023/07/13 08:31:14;;;;;;;9.75;4.03;;;;;;;17.50;100.00;101257.25;7370240;19;20369;-36
2023/07/13 08:33:45;;;;;;;11.45;4.50;;;;;;;17.39;100.00;101270.06;7392951;19;20375;-36
2023/07/13 08:36:14;;;;;;;15.25;4.55;;;;;;;17.31;100.00;101277.72;7369971;19;20400;-37
2023/07/13 08:38:44;;;;;;;13.82;4.93;;;;;;;17.32;100.00;101276.00;7392716;19;20372;-37
2023/07/13 08:41:19;;;;;;;11.95;3.60;;;;;;;17.32;100.00;101278.59;7369522;19;20321;-37
2023/07/13 08:43:51;;;;;;;10.30;3.77;;;;;;;17.28;100.00;101268.09;7393363;19;20385;-35
2023/07/13 08:46:23;;;;;;;13.20;4.78;;;;;;;17.22;100.00;101269.69;7368211;19;20390;-37
2023/07/13 08:49:00;;;;;;;13.90;4.40;;;;;;;17.40;100.00;101251.81;7393861;19;20431;-37
2023/07/13 08:51:36;;;;;;;14.13;4.00;;;;;;;17.58;100.00;101255.66;7368283;19;20317;-37
2023/07/13 08:54:08;;;;;;;12.70;3.78;;;;;;;17.66;100.00;101258.44;7393674;19;20382;-38
2023/07/13 08:56:40;;;;;;;9.10;3.55;;;;;;;17.77;100.00;101261.25;7369332;19;20400;-37
2023/07/13 08:59:14;;;;;;;11.98;3.80;;;;;;;17.64;100.00;101279.28;7393338;19;20447;-37
2023/07/13 09:01:57;;;;;;;11.90;4.20;;;;;;;17.88;100.00;101280.63;7369781;19;20321;-37
2023/07/13 09:04:30;;;;;;;10.77;3.55;;;;;;;18.02;100.00;101293.97;7392566;19;20933;-37
2023/07/13 09:07:05;;;;;;;8.57;3.40;;;;;;;18.15;100.00;101309.91;7368559;19;20317;-37
2023/07/13 09:09:42;;;;;;;8.27;2.92;;;;;;;18.27;100.00;101314.47;7392616;19;20373;-37
2023/07/13 09:12:17;;;;;;;9.10;3.13;;;;;;;18.06;100.00;101337.56;7369328;19;20320;-37
2023/07/13 09:14:50;;;;;;;9.13;2.75;;;;;;;18.25;100.00;101332.69;7393380;19;20778;-40
2023/07/13 09:17:23;;;;;;;6.47;2.67;;;;;;;18.62;100.00;101319.44;7370463;19;20325;-36
2023/07/13 09:20:03;;;;;;;11.32;2.80;;;;;;;18.89;100.00;101324.28;7396656;19;20378;-38
2023/07/13 09:22:34;;;;;;;9.98;3.00;;;;;;;18.88;100.00;101335.56;7369527;19;20327;-38
2023/07/13 09:25:08;;;;;;;11.02;2.97;;;;;;;18.73;100.00;101346.63;7396598;19;20360;-36
2023/07/13 09:27:42;;;;;;;7.77;2.93;;;;;;;18.77;100.00;101355.44;7370360;19;20735;-37
2023/07/13 09:30:27;;;;;;;8.52;3.30;;;;;;;18.48;100.00;101348.81;7396909;19;20880;-37
2023/07/13 09:32:58;;;;;;;5.90;2.47;;;;;;;18.77;100.00;101334.53;7373567;19;20207;-37
2023/07/13 09:35:30;;;;;;;10.47;2.80;;;;;;;18.72;100.00;101355.31;7398052;19;20482;-38
2023/07/13 09:38:02;;;;;;;7.80;2.40;;;;;;;18.58;100.00;101351.59;7374251;19;20433;-37
2023/07/13 09:40:44;;;;;;;7.53;2.20;;;;;;;18.70;100.00;101341.34;7382732;19;20529;-36
2023/07/13 09:43:18;;;;;;;7.67;3.27;;;;;;;18.78;100.00;101340.59;7396620;19;20495;-37
2023/07/13 09:45:49;;;;;;;8.53;3.20;;;;;;;18.69;100.00;101355.28;7372238;19;20951;-36
2023/07/13 09:48:20;;;;;;;7.83;3.37;;;;;;;18.76;100.00;101348.41;7394944;19;20431;-36
2023/07/13 09:50:51;;;;;;;11.63;3.03;;;;;;;18.97;100.00;101358.34;7370719;19;20428;-38
2023/07/13 09:53:23;;;;;;;9.87;2.30;;;;;;;19.14;100.00;101357.78;7394946;19;20399;-36
2023/07/13 09:55:53;;;;;;;4.53;2.20;;;;;;;18.80;100.00;101362.41;7372311;19;21021;-37
2023/07/13 09:58:27;;;;;;;7.10;2.60;;;;;;;18.69;100.00;101352.66;7394310;19;20452;-38
2023/07/13 10:00:59;;;;;;;9.40;2.40;;;;;;;18.66;100.00;101355.22;7371488;19;20397;-37
2023/07/13 10:03:36;;;;;;;5.03;2.00;;;;;;;18.71;100.00;101353.56;7395664;19;20475;-37
2023/07/13 10:06:14;;;;;;;11.33;2.90;;;;;;;19.00;100.00;101340.13;7371155;19;21334;-36
2023/07/13 10:08:44;;;;;;;7.73;2.70;;;;;;;18.96;100.00;101346.16;7395612;19;20447;-37
2023/07/13 10:11:16;;;;;;;18.03;3.40;;;;;;;18.78;100.00;101343.22;7371241;19;21050;-37
2023/07/13 10:13:55;;;;;;;8.87;2.97;;;;;;;18.59;100.00;101338.56;7396395;19;20404;-37
2023/07/13 10:16:25;;;;;;;7.37;2.23;;;;;;;18.75;100.00;101349.28;7369864;19;20447;-37
2023/07/13 10:19:01;;;;;;;6.60;2.77;;;;;;;18.84;100.00;101338.09;7389241;19;20439;-36
2023/07/13 10:21:34;;;;;;;8.10;2.53;;;;;;;19.38;100.00;101332.88;7370750;19;20415;-37
2023/07/13 10:24:13;;;;;;;6.03;2.23;;;;;;;19.56;100.00;101325.28;7395219;19;20415;-36
2023/07/13 10:26:50;;;;;;;5.57;2.33;;;;;;;19.44;100.00;101288.47;7369737;19;20456;-36
2023/07/13 10:29:23;;;;;;;4.80;2.50;;;;;;;19.45;100.00;101252.72;7393977;19;20464;-35
2023/07/13 10:31:54;;;;;;;7.10;2.40;;;;;;;19.42;100.00;101264.00;7369646;19;20451;-37
2023/07/13 10:34:24;;;;;;;6.23;2.20;;;;;;;19.39;100.00;101270.09;7395328;19;20428;-38
2023/07/13 10:36:55;;;;;;;7.37;3.07;;;;;;;19.86;100.00;101259.31;7369282;19;20467;-36
2023/07/13 10:39:27;;;;;;;8.67;2.70;;;;;;;20.15;100.00;101240.44;7392604;19;20439;-36
2023/07/13 10:42:00;;;;;;;9.20;3.00;;;;;;;20.74;100.00;101227.81;7366442;19;20504;-37
2023/07/13 10:44:33;;;;;;;6.70;2.67;;;;;;;20.22;100.00;101192.47;7389254;19;20410;-36
2023/07/13 10:47:08;;;;;;;10.90;5.87;;;;;;;19.56;100.00;101175.22;7369349;19;20415;-38
2023/07/13 10:49:38;;;;;;;9.80;4.27;;;;;;;19.94;100.00;101200.06;7394333;19;20461;-38
2023/07/13 10:52:08;;;;;;;10.57;4.20;;;;;;;20.12;100.00;101198.50;7371981;19;20458;-36
2023/07/13 10:54:38;;;;;;;9.20;3.03;;;;;;;19.75;100.00;101176.31;7399712;19;20399;-37
2023/07/13 10:57:19;;;;;;;11.60;4.07;;;;;;;19.72;100.00;101178.88;7375918;19;20427;-37
2023/07/13 10:59:53;;;;;;;9.90;3.97;;;;;;;19.68;100.00;101187.56;7400297;19;20475;-38
2023/07/13 11:02:28;;;;;;;8.43;3.20;;;;;;;20.04;100.00;101183.59;7375630;19;20438;-38
2023/07/13 11:04:59;;;;;;;13.50;4.20;;;;;;;19.74;100.00;101171.91;7401155;19;20427;-36
2023/07/13 11:07:32;;;;;;;24.60;12.10;;;;;;;19.58;100.00;101191.81;7376500;19;20451;-36
2023/07/13 11:10:06;;;;;;;11.83;4.67;;;;;;;19.42;100.00;101202.13;7400949;19;20439;-38
2023/07/13 11:12:53;;;;;;;10.37;3.80;;;;;;;19.41;100.00;101233.47;7371153;19;20454;-37
2023/07/13 11:15:35;;;;;;;13.97;4.13;;;;;;;20.07;100.00;101232.50;7403672;19;20826;-38
2023/07/13 11:18:06;;;;;;;9.07;2.47;;;;;;;20.16;100.00;101179.34;7378547;19;20546;-37
2023/07/13 11:20:39;;;;;;;11.73;3.40;;;;;;;20.12;100.00;101140.88;7374929;19;20404;-37
2023/07/13 11:23:22;;;;;;;7.30;3.53;;;;;;;19.73;100.00;101143.13;7396738;19;21105;-38
2023/07/13 11:25:51;;;;;;;6.63;3.00;;;;;;;19.72;100.00;101178.00;7372218;19;20495;-38
2023/07/13 11:28:26;;;;;;;7.47;3.13;;;;;;;19.78;100.00;101230.41;7394292;19;20435;-37
2023/07/13 11:31:05;;;;;;;10.00;3.90;;;;;;;19.62;100.00;101266.88;7371594;19;20498;-38